Terminal Aerodrome Forecast
Issued by NWS

Home | Current Version | Previous Version | Graphics & Text | Print | Product List | Glossary On
Versions: 1 2 3 4 5 6 7 8 9 10 11 12 13 14 15 16 17 18 19 20 21 22 23 24 25 26 27 28 29
000
FTUS43 KLOT 261500 AAA
TAFGYY
TAF AMD
KGYY 261500Z 2615/2712 18012KT P6SM BKN080
     FM261600 19015G24KT P6SM BKN060
     FM261800 22022G37KT P6SM FEW060
     FM262300 21015G25KT P6SM FEW060
     FM270100 20011KT P6SM BKN050=

USA.gov is the U.S. government's official web portal to all federal, state and local government web resources and services.